Startpagina
METAR-TAF:

METAR-TAF

Vliegvelden :

Casper, Wyoming, Verenigde Staten

breedte: 42-53-51N, lengte: 106-28-23W, hoogte: 1630 m

Actueel weer

Dit bericht is 51 minuten geleden gemaakt, om 10:53 UTC
Weinig wind
Temperatuur 11°C
Vochtigheid 87%
Druk 1021 hPa
Zicht: 16.1 km
Onbewolkt

METAR: KCPR 191053Z 00000KT 10SM CLR 11/09 A3014 RMK AO2 SLP143 T01060089

Tijdstip: 05:44 (11:44 UTC)

Verwachting

Dit bericht is 24 minuten geleden gemaakt, om 11:20 UTC
Verwachting geldig van 19 om 12 UTC tot 20 om 12 UTC
Wind 7 kt uit het westzuidwesten
Zicht: 10 km
Weinig wolken op 12000 ft
Van 19 om 1800 UTC
Wind 10 kt uit het westnoordwesten met uitschieters tot 20 kt
Zicht: 10 km
Onbewolkt
Van 20 om 0100 UTC
Wind 8 kt uit het noordnoordoosten
Zicht: 10 km
Onbewolkt
Van 20 om 1000 UTC
Wind 5 kt uit variabele richting
Zicht: 10 km
Onbewolkt

TAF: KCPR 191120Z 1912/2012 24007KT P6SM FEW120 FM191800 30010G20KT P6SM SKC FM200100 03008KT P6SM SKC FM201000 VRB05KT P6SM SKC

Waarnemingen en weersverwachtingen van meer dan 4000 vliegvelden (METAR en TAF).

De beschikbare stations zijn de gele en rode punten op de kaart.

Ga met uw muis naar het station om de naam te zien.

Klik dan om waarnemingen en weersverwachtingen te zien.

kaart wijzigen: klik op de groene knoppen met een zwart kruis om in te zoomen, op de groene knop met een streepje om uit te zoomen of op de groene pijlen voor aangrenzende kaarten.


METAR-TAF: